TimeEST,TemperatureF,Dew PointF,Humidity,Sea Level PressureIn,VisibilityMPH,Wind Direction,Wind SpeedMPH,Gust SpeedMPH,PrecipitationIn,Events,Conditions,WindDirDegrees,DateUTC
1:53 AM,25.0,21.9,88,30.30,9.0,Calm,Calm,-,N/A,,Clear,0,2012-12-14 06:53:00
2:53 AM,24.1,21.0,88,30.31,7.0,Calm,Calm,-,N/A,,Clear,0,2012-12-14 07:53:00
3:53 AM,24.1,21.0,88,30.33,8.0,Calm,Calm,-,N/A,,Clear,0,2012-12-14 08:53:00
4:53 AM,25.0,21.9,88,30.32,8.0,Calm,Calm,-,N/A,,Clear,0,2012-12-14 09:53:00
5:53 AM,24.1,21.0,88,30.31,8.0,Calm,Calm,-,N/A,,Clear,0,2012-12-14 10:53:00
6:53 AM,25.0,21.0,85,30.33,9.0,Calm,Calm,-,N/A,,Clear,0,2012-12-14 11:53:00
7:53 AM,23.0,19.9,88,30.34,7.0,SSE,3.5,-,N/A,,Clear,150,2012-12-14 12:53:00
8:53 AM,30.9,28.0,89,30.34,8.0,Calm,Calm,-,N/A,,Clear,0,2012-12-14 13:53:00
9:53 AM,37.9,30.0,73,30.34,10.0,Calm,Calm,-,N/A,,Clear,0,2012-12-14 14:53:00
10:53 AM,44.1,30.0,58,30.35,10.0,South,3.5,-,N/A,,Clear,190,2012-12-14 15:53:00
11:53 AM,50.0,28.9,44,30.32,10.0,SSW,5.8,-,N/A,,Clear,210,2012-12-14 16:53:00
12:53 PM,53.1,27.0,37,30.29,10.0,WSW,6.9,-,N/A,,Clear,240,2012-12-14 17:53:00
1:53 PM,54.0,26.1,34,30.25,10.0,WSW,8.1,-,N/A,,Clear,240,2012-12-14 18:53:00
2:53 PM,54.0,25.0,33,30.23,10.0,SSW,4.6,-,N/A,,Clear,200,2012-12-14 19:53:00
3:53 PM,54.0,23.0,30,30.23,10.0,WSW,4.6,-,N/A,,Clear,240,2012-12-14 20:53:00
4:53 PM,48.9,24.1,38,30.22,10.0,South,4.6,-,N/A,,Clear,180,2012-12-14 21:53:00
5:53 PM,48.0,25.0,41,30.21,10.0,South,3.5,-,N/A,,Clear,170,2012-12-14 22:53:00
6:53 PM,41.0,27.0,57,30.20,10.0,Calm,Calm,-,N/A,,Clear,0,2012-12-14 23:53:00
7:53 PM,37.9,28.0,68,30.22,10.0,Calm,Calm,-,N/A,,Clear,0,2012-12-15 00:53:00
8:53 PM,37.9,28.0,68,30.20,10.0,SE,3.5,-,N/A,,Clear,130,2012-12-15 01:53:00
9:53 PM,36.0,28.9,76,30.19,10.0,Calm,Calm,-,N/A,,Clear,0,2012-12-15 02:53:00
10:53 PM,35.1,28.9,78,30.18,10.0,Calm,Calm,-,N/A,,Clear,0,2012-12-15 03:53:00
11:53 PM,37.0,28.9,73,30.15,10.0,Calm,Calm,-,N/A,,Clear,0,2012-12-15 04:53:00